Fraser Lake, Canada
Current Conditions -  °F | °C
As of 10:36 AM on Monday 26 Jan 2015 (Local Time) from CYXS Reporting Station
Light Rain Light Rain  
Wind Chill: 26°   Ceiling: 3900
Heat Index: 34°   Visibility: 0.12mi
Dew Point: 34°   Wind: 9mph
Humidity: 100%   Direction: 360°N
Pressure: 29.83"   Gusts: NA
Location:  54.05°N, 124.78°W
Report Text: CYXS 261836Z AUTO 36008KT 1/8SM R15/3000FT/N -RA FG SCT020 OVC039 01/01 A2983 RMK SLP129
Loading
Personal Weather Stations






























Interactive Weather Map New forecast layout! Learn more

10-Day Weather Forecast

Advertisements
Track Severe Weather on mobile